ADDS METAR Data INFO
IDs: Format: Raw Decoded Include TAF

Data at: 2345 UTC 15 Dec 2017

KBVY 152253Z 02003KT 10SM OVC080 M03/M11 A2988 RMK AO2 SLP117 T10331106
KBVY 152153Z 00000KT 10SM OVC100 M03/M12 A2991 RMK AO2 PRESFR SLP127 T10281117
KBVY 152053Z 22003KT 10SM FEW080 OVC095 M03/M12 A2995 RMK AO2 SLP141 T10281117 56020
KBVY 151953Z 21003KT 10SM OVC095 M03/M12 A2997 RMK AO2 SLP147 T10281122
KBVY 151853Z 00000KT 10SM OVC110 M03/M13 A2998 RMK AO2 SLP151 T10331128
KBVY 151753Z 24006KT 10SM OVC200 M03/M13 A3001 RMK AO2 SLP161 T10331128 11033 21106 56028
KBVY 151653Z VRB03KT 10SM OVC200 M04/M13 A3003 RMK AO2 SLP168 T10391128
KBVY 151553Z 24005KT 10SM CLR M04/M13 A3007 RMK AO2 SLP180 T10441128
KBVY 151453Z 25006KT 10SM SCT150 BKN200 M06/M13 A3009 RMK AO2 SLP189 T10611128 52014
KBVY 151353Z 23004KT 10SM SCT150 BKN200 M07/M13 A3008 RMK AO2 SLP184 T10721128
KBVY 151253Z 20003KT 10SM SCT150 BKN200 M09/M13 A3007 RMK AO2 SLP180 T10891133
KBVY 151153Z 24003KT 10SM SCT150 BKN200 M09/M14 A3005 RMK AO2 SLP175 T10941144 11083 21100 51007
KBVY 151053Z AUTO 26003KT 10SM CLR M09/M14 A3005 RMK AO2 SLP173 T10941144
KBVY 150953Z AUTO 25004KT 10SM CLR M09/M14 A3004 RMK AO2 SLP172 T10941144
KBVY 150853Z AUTO 24004KT 10SM CLR M09/M14 A3003 RMK AO2 SLP169 T10941144 53014
KBVY 150753Z AUTO 25006KT 10SM CLR M09/M14 A3002 RMK AO2 SLP164 T10891144
KBVY 150653Z AUTO 26004KT 10SM CLR M09/M15 A3000 RMK AO2 SLP158 T10891150
KBVY 150553Z AUTO 25007KT 10SM CLR M08/M15 A2999 RMK AO2 SLP155 T10831150 11050 21083 51018
KBVY 150453Z AUTO 27009KT 10SM CLR M08/M15 A2997 RMK AO2 SLP148 T10781150 410111083
KBVY 150353Z AUTO 28009KT 10SM CLR M08/M16 A2997 RMK AO2 SLP147 T10781161
KBVY 150253Z AUTO 27010KT 10SM CLR M07/M17 A2994 RMK AO2 SLP137 T10721167 51030
KBVY 150153Z AUTO 27010G16KT 10SM CLR M07/M17 A2992 RMK AO2 SLP130 T10671167
KBVY 150053Z 26012KT 10SM CLR M06/M17 A2989 RMK AO2 SLP119 LAST T10561167
KBVY 142353Z 27013G20KT 10SM CLR M05/M16 A2985 RMK AO2 SLP107 T10501156 11011 21050 51044
KBVY 142253Z 28005KT 10SM CLR M04/M17 A2981 RMK AO2 SLP093 T10441167
KBVY 142153Z 29006KT 10SM CLR M04/M17 A2978 RMK AO2 SLP082 T10391172
KBVY 142053Z 28012G20KT 10SM CLR M03/M17 A2972 RMK AO2 SLP062 T10281172 53031
KBVY 141953Z 28011G17KT 10SM CLR M02/M16 A2968 RMK AO2 SLP048 T10171161
KBVY 141853Z 31013G20KT 10SM CLR M01/M16 A2965 RMK AO2 SLP037 T10111161
KBVY 141753Z 28009KT 10SM CLR M02/M14 A2963 RMK AO2 SLP030 T10171139 11017 21056 51006
KBVY 141653Z 29008KT 10SM FEW080 M03/M13 A2962 RMK AO2 SLP027 T10281128
KBVY 141553Z 30008KT 10SM OVC060 M04/M13 A2962 RMK AO2 SLP030 T10391133
KBVY 141453Z 28008KT 10SM FEW110 M04/M13 A2961 RMK AO2 SLP025 T10391128 53001
KBVY 141353Z 30008KT 10SM BKN070 OVC090 M05/M12 A2959 RMK AO2 SLP018 T10501122
KBVY 141253Z 30005KT 10SM SCT043 OVC060 M06/M11 A2960 RMK AO2 SLP021 T10561111
KBVY 141153Z 28007KT 10SM OVC060 M06/M12 A2961 RMK AO2 SLP024 T10561117 11056 21056 53009